Time;durP1;ratioP1;P1;durP2;ratioP2;P2;SDS_P1;SDS_P2;PMS_P1;PMS_P2;Temp;Humidity;BMP_temperature;BMP_pressure;BME280_temperature;BME280_humidity;BME280_pressure;Samples;Min_cycle;Max_cycle;Signal;HPM_P1;HPM_P2
2021/05/20 00:06:34;;;;;;;11.90;8.43;;;;;;;5.80;73.66;99266.08;513651;1093;116490;-66
2021/05/20 00:16:39;;;;;;;13.30;8.83;;;;;;;5.69;73.88;99269.19;513530;1098;116787;-66
2021/05/20 00:26:45;;;;;;;15.03;10.73;;;;;;;5.58;74.16;99267.95;528760;1097;116430;-63
2021/05/20 00:36:50;;;;;;;15.80;9.60;;;;;;;5.53;73.89;99263.88;525068;1093;116743;-65
2021/05/20 00:46:56;;;;;;;11.20;9.27;;;;;;;5.43;74.14;99276.52;521725;1093;116125;-65
2021/05/20 00:57:01;;;;;;;17.40;10.37;;;;;;;5.36;74.49;99270.76;517871;1093;116900;-64
2021/05/20 01:07:06;;;;;;;12.57;9.03;;;;;;;5.22;74.62;99262.77;518085;1098;169257;-65
2021/05/20 01:17:12;;;;;;;15.75;10.50;;;;;;;5.17;75.03;99281.20;520335;1093;116078;-64
2021/05/20 01:27:17;;;;;;;16.30;10.90;;;;;;;5.10;74.92;99284.99;525312;1098;116273;-66
2021/05/20 01:37:22;;;;;;;15.30;10.23;;;;;;;5.07;75.76;99285.14;520890;1093;169612;-65
2021/05/20 01:47:27;;;;;;;11.03;9.03;;;;;;;5.07;76.05;99287.75;521924;1093;116708;-67
2021/05/20 01:57:32;;;;;;;11.20;8.83;;;;;;;5.04;76.54;99286.98;526633;1098;116474;-65
2021/05/20 02:07:37;;;;;;;10.73;7.60;;;;;;;4.99;76.05;99283.73;527917;1098;117398;-65
2021/05/20 02:17:43;;;;;;;13.33;12.03;;;;;;;4.98;76.79;99284.64;518316;1098;116178;-66
2021/05/20 02:27:48;;;;;;;18.10;16.30;;;;;;;5.03;77.47;99285.30;514473;1098;116297;-65
2021/05/20 02:37:53;;;;;;;19.83;15.53;;;;;;;5.08;77.60;99286.83;521671;1097;117070;-65
2021/05/20 02:47:59;;;;;;;18.13;16.27;;;;;;;5.22;77.81;99305.24;522730;1098;117065;-65
2021/05/20 02:58:04;;;;;;;19.90;16.57;;;;;;;5.56;78.46;99310.64;521081;1098;116385;-64
2021/05/20 03:08:11;;;;;;;13.93;10.90;;;;;;;6.23;78.74;99316.06;520699;1093;116117;-64
2021/05/20 03:18:16;;;;;;;12.77;7.93;;;;;;;6.99;77.83;99322.63;522157;1098;116326;-64
2021/05/20 03:28:21;;;;;;;12.40;9.50;;;;;;;7.17;77.11;99325.15;519247;1098;116909;-66
2021/05/20 03:38:26;;;;;;;11.97;9.20;;;;;;;7.23;76.75;99329.19;524176;1098;116862;-67
2021/05/20 03:48:32;;;;;;;10.87;8.63;;;;;;;7.43;76.18;99342.02;515115;1093;116159;-66
2021/05/20 03:58:36;;;;;;;10.28;8.08;;;;;;;7.79;75.93;99352.27;521467;1098;115284;-66
2021/05/20 04:08:41;;;;;;;9.87;7.83;;;;;;;13.73;74.28;99356.77;517243;1098;116286;-64
2021/05/20 04:18:46;;;;;;;8.50;7.07;;;;;;;20.58;62.74;99355.06;523280;1093;118659;-66
2021/05/20 04:28:51;;;;;;;7.13;6.17;;;;;;;24.25;53.86;99369.60;518298;1098;116391;-66
2021/05/20 04:38:56;;;;;;;9.30;6.20;;;;;;;26.01;48.29;99362.19;515775;1098;116231;-65
2021/05/20 04:49:02;;;;;;;4.70;4.30;;;;;;;29.04;42.99;99378.84;518402;1098;116414;-66
2021/05/20 04:59:10;;;;;;;5.70;3.67;;;;;;;30.63;37.82;99368.84;525439;1098;117127;-61
2021/05/20 05:09:15;;;;;;;5.13;3.73;;;;;;;32.69;32.19;99383.80;519136;1098;176705;-67
2021/05/20 05:19:20;;;;;;;7.80;3.87;;;;;;;33.05;30.61;99388.91;523177;1092;117250;-66
2021/05/20 05:29:25;;;;;;;4.73;4.05;;;;;;;34.79;28.61;99388.09;516766;1098;118304;-68
2021/05/20 05:39:30;;;;;;;5.73;3.35;;;;;;;36.42;25.63;99393.64;520254;1098;117167;-66
2021/05/20 05:49:40;;;;;;;5.80;2.70;;;;;;;36.71;23.33;99382.97;520117;1098;117455;-65
2021/05/20 05:59:48;;;;;;;2.90;2.08;;;;;;;36.67;21.79;99394.74;516553;1098;117001;-65
2021/05/20 06:09:53;;;;;;;2.55;2.35;;;;;;;36.72;20.95;99409.22;525963;1098;116465;-65
2021/05/20 06:19:58;;;;;;;2.43;2.23;;;;;;;38.40;20.40;99397.84;529280;1098;117377;-64
2021/05/20 06:30:06;;;;;;;2.90;1.70;;;;;;;38.53;18.38;99412.84;524539;1093;116908;-68
2021/05/20 06:40:14;;;;;;;2.98;2.08;;;;;;;38.87;17.97;99411.09;523453;1093;119742;-64
2021/05/20 06:50:19;;;;;;;1.58;1.48;;;;;;;38.70;17.05;99417.04;522046;1098;116869;-70
2021/05/20 07:00:24;;;;;;;2.15;1.98;;;;;;;38.37;16.96;99416.79;522615;1098;117775;-62
2021/05/20 07:10:29;;;;;;;1.93;1.80;;;;;;;38.04;15.66;99417.36;518512;1098;116540;-66
2021/05/20 07:20:36;;;;;;;1.73;1.33;;;;;;;37.59;15.74;99422.03;524859;1098;116904;-65
2021/05/20 07:30:41;;;;;;;5.08;1.40;;;;;;;39.17;15.54;99416.52;525557;1097;116118;-62
2021/05/20 07:40:46;;;;;;;8.45;2.35;;;;;;;39.31;14.57;99422.94;523688;1098;116923;-62
2021/05/20 07:50:52;;;;;;;2.90;1.40;;;;;;;39.17;15.17;99422.84;520752;1098;116501;-60
2021/05/20 08:00:57;;;;;;;4.17;2.07;;;;;;;28.71;18.89;99420.50;524961;1098;116473;-62
2021/05/20 08:11:03;;;;;;;1.70;1.60;;;;;;;24.05;23.67;99408.60;501101;1093;10001299;-58
2021/05/20 08:21:09;;;;;;;1.93;1.63;;;;;;;21.69;26.39;99417.63;528847;1098;116868;-62
2021/05/20 08:31:14;;;;;;;2.23;1.60;;;;;;;20.16;28.45;99428.05;516121;1098;166816;-61
2021/05/20 08:41:21;;;;;;;5.20;1.87;;;;;;;20.29;29.14;99419.58;525427;1093;117633;-57
2021/05/20 08:51:26;;;;;;;2.57;1.53;;;;;;;19.53;29.90;99428.37;529658;1098;116775;-65
2021/05/20 09:01:36;;;;;;;3.33;1.00;;;;;;;19.05;31.05;99428.00;519127;1098;116551;-66
2021/05/20 09:11:48;;;;;;;1.50;1.30;;;;;;;18.51;31.41;99420.09;517938;1098;116339;-66
2021/05/20 09:22:05;;;;;;;1.00;0.80;;;;;;;18.94;30.46;99422.91;521060;1092;116125;-63
2021/05/20 09:32:11;;;;;;;2.95;1.20;;;;;;;18.89;30.99;99426.04;514405;1098;116583;-63
2021/05/20 09:42:19;;;;;;;1.80;1.67;;;;;;;17.78;32.62;99417.41;519410;1092;117498;-64
2021/05/20 09:52:25;;;;;;;3.50;1.20;;;;;;;18.36;32.02;99420.66;515580;1098;117548;-66
2021/05/20 10:02:32;;;;;;;1.78;1.05;;;;;;;18.37;31.75;99419.66;516960;1098;116178;-66
2021/05/20 10:12:39;;;;;;;1.60;1.10;;;;;;;17.88;32.37;99425.31;527240;1098;116633;-66
2021/05/20 10:22:45;;;;;;;1.70;0.80;;;;;;;17.86;32.05;99419.31;519330;1098;116469;-67
2021/05/20 10:32:54;;;;;;;4.13;1.20;;;;;;;17.45;34.13;99409.92;516944;1098;115866;-65
2021/05/20 10:43:13;;;;;;;5.17;1.93;;;;;;;17.63;33.36;99412.62;522312;1093;116550;-66
2021/05/20 10:53:56;;;;;;;1.67;1.00;;;;;;;17.30;34.58;99428.14;522040;1098;118286;-63
2021/05/20 11:04:03;;;;;;;1.08;1.00;;;;;;;17.85;33.77;99418.50;528327;1098;117244;-64
2021/05/20 11:14:36;;;;;;;3.33;1.20;;;;;;;17.71;33.85;99419.83;529715;1098;116790;-65
2021/05/20 11:24:43;;;;;;;2.53;1.55;;;;;;;17.75;33.47;99407.09;526207;1092;116885;-65
2021/05/20 11:35:03;;;;;;;1.40;1.07;;;;;;;17.96;33.46;99404.15;523328;1098;116669;-66
2021/05/20 11:45:24;;;;;;;4.70;2.60;;;;;;;17.75;34.13;99386.67;514000;1098;116003;-68
2021/05/20 11:55:38;;;;;;;2.27;2.17;;;;;;;17.32;34.90;99389.02;527979;1098;116387;-62
2021/05/20 12:05:43;;;;;;;2.23;1.50;;;;;;;17.71;35.44;99377.34;520095;1098;115996;-66
2021/05/20 12:15:50;;;;;;;1.33;1.00;;;;;;;17.50;36.05;99372.32;524369;1098;116490;-66
2021/05/20 12:25:57;;;;;;;0.83;0.80;;;;;;;17.77;35.38;99363.45;514353;1092;117131;-66
2021/05/20 12:36:02;;;;;;;1.97;1.10;;;;;;;18.03;34.97;99365.41;523223;1097;116568;-63
2021/05/20 12:46:12;;;;;;;1.10;0.90;;;;;;;18.66;34.13;99370.70;523921;1097;117422;-62
2021/05/20 12:56:30;;;;;;;2.70;1.33;;;;;;;18.30;34.47;99374.27;519121;1098;116919;-63
2021/05/20 13:06:35;;;;;;;4.88;1.40;;;;;;;18.04;35.50;99379.52;523882;1098;116645;-64
2021/05/20 13:16:48;;;;;;;1.63;1.53;;;;;;;17.67;36.28;99389.27;523993;1098;116570;-63
2021/05/20 13:26:53;;;;;;;2.45;2.03;;;;;;;17.91;36.07;99378.04;523661;1098;116536;-62
2021/05/20 13:36:58;;;;;;;4.33;3.77;;;;;;;17.72;36.35;99354.27;529249;1098;116659;-61
2021/05/20 13:47:03;;;;;;;3.53;1.87;;;;;;;17.98;36.65;99377.45;529233;1098;117095;-62
2021/05/20 13:57:08;;;;;;;2.30;1.20;;;;;;;18.32;35.83;99369.63;527732;1093;116348;-60
2021/05/20 14:07:15;;;;;;;4.87;1.40;;;;;;;18.65;36.34;99368.19;516300;1098;116498;-61
2021/05/20 14:17:21;;;;;;;7.13;1.60;;;;;;;18.30;36.50;99358.31;525497;1098;116947;-61
2021/05/20 14:27:27;;;;;;;6.45;2.25;;;;;;;17.55;39.49;99363.91;519377;1092;117461;-61
2021/05/20 14:37:32;;;;;;;3.83;3.45;;;;;;;16.87;40.88;99358.75;518690;1098;116830;-61
2021/05/20 14:47:43;;;;;;;2.33;2.07;;;;;;;16.54;41.35;99350.33;518564;1094;117042;-60
2021/05/20 15:08:12;;;;;;;3.20;1.80;;;;;;;16.22;42.25;99356.79;524295;1098;116495;-60
2021/05/20 15:18:19;;;;;;;5.03;2.17;;;;;;;16.27;42.20;99364.31;515329;1098;116862;-60
2021/05/20 15:28:25;;;;;;;3.73;1.80;;;;;;;16.05;41.84;99380.36;516305;1098;116647;-63
2021/05/20 15:38:30;;;;;;;2.45;1.78;;;;;;;15.85;41.95;99378.64;522741;1097;116639;-60
2021/05/20 15:59:00;;;;;;;2.27;1.93;;;;;;;15.64;43.76;99398.95;522735;1098;116691;-61
2021/05/20 16:09:08;;;;;;;3.13;2.10;;;;;;;15.04;46.52;99457.88;523902;1098;116527;-60
2021/05/20 16:19:13;;;;;;;2.63;2.30;;;;;;;13.19;53.12;99493.71;525200;1098;115703;-61
2021/05/20 16:39:41;;;;;;;3.30;2.63;;;;;;;11.70;58.89;99480.83;518621;1098;116595;-61
2021/05/20 16:49:46;;;;;;;2.83;2.27;;;;;;;11.77;59.50;99458.38;519221;1093;117535;-60
2021/05/20 16:59:53;;;;;;;3.75;2.98;;;;;;;12.38;59.72;99443.54;493673;1092;10001721;-61
2021/05/20 17:09:58;;;;;;;3.37;2.63;;;;;;;13.83;57.99;99443.97;524485;1098;117978;-59
2021/05/20 17:20:03;;;;;;;3.70;3.27;;;;;;;13.49;58.73;99458.02;527284;1093;182687;-61
2021/05/20 17:30:11;;;;;;;3.40;3.10;;;;;;;13.23;59.78;99458.23;516652;1098;116610;-60
2021/05/20 17:40:17;;;;;;;2.97;2.77;;;;;;;12.91;61.05;99463.35;523693;1094;117389;-61
2021/05/20 17:50:21;;;;;;;4.27;3.07;;;;;;;12.46;61.80;99447.28;526149;1098;116648;-61
2021/05/20 18:00:27;;;;;;;3.77;3.33;;;;;;;12.23;62.98;99454.26;524481;1098;117110;-60
2021/05/20 18:10:35;;;;;;;5.00;4.47;;;;;;;11.58;63.29;99456.22;522628;1098;116329;-67
2021/05/20 18:20:52;;;;;;;5.08;3.60;;;;;;;11.15;64.73;99460.05;528243;1098;116433;-68
2021/05/20 18:30:58;;;;;;;5.30;4.47;;;;;;;10.75;65.78;99456.57;517351;1098;118765;-68
2021/05/20 18:41:04;;;;;;;5.78;5.15;;;;;;;10.40;66.47;99466.73;522262;1098;116439;-68
2021/05/20 18:51:09;;;;;;;6.00;5.30;;;;;;;10.06;67.56;99460.11;513281;1092;116471;-68
2021/05/20 19:01:15;;;;;;;6.77;6.10;;;;;;;9.70;68.04;99455.44;525300;1098;116647;-67
2021/05/20 19:11:20;;;;;;;10.37;8.97;;;;;;;9.39;68.96;99455.53;510906;1093;116603;-68
2021/05/20 19:21:24;;;;;;;13.87;11.90;;;;;;;9.15;69.73;99468.36;519268;1098;116255;-67
2021/05/20 19:31:33;;;;;;;14.40;11.00;;;;;;;8.94;70.31;99468.70;525619;1092;117239;-69
2021/05/20 19:41:38;;;;;;;12.35;10.78;;;;;;;8.69;70.58;99459.68;514141;1098;116701;-66
2021/05/20 19:51:43;;;;;;;13.87;12.43;;;;;;;8.50;71.15;99458.12;525413;1093;116519;-68
2021/05/20 20:01:49;;;;;;;15.50;13.17;;;;;;;8.44;72.06;99457.59;515436;1097;117246;-67
2021/05/20 20:11:54;;;;;;;16.63;14.18;;;;;;;8.55;72.23;99463.95;526048;1098;117007;-68
2021/05/20 20:22:03;;;;;;;16.53;13.73;;;;;;;8.62;72.20;99455.72;511202;1098;116522;-60
2021/05/20 20:32:12;;;;;;;16.80;15.10;;;;;;;8.52;72.54;99458.87;519333;1093;116363;-67
2021/05/20 20:42:18;;;;;;;16.87;14.47;;;;;;;8.33;72.78;99456.44;513363;1098;117321;-67
2021/05/20 20:52:25;;;;;;;19.70;16.83;;;;;;;8.15;72.92;99460.11;514418;1098;116744;-68
2021/05/20 21:02:31;;;;;;;17.65;15.65;;;;;;;7.97;73.29;99457.58;527661;1098;116752;-61
2021/05/20 21:12:37;;;;;;;15.13;13.63;;;;;;;7.79;73.36;99456.83;515269;1092;117911;-61
2021/05/20 21:22:42;;;;;;;16.43;12.70;;;;;;;7.61;73.54;99446.42;513300;1093;116611;-59
2021/05/20 21:32:47;;;;;;;14.17;12.63;;;;;;;7.48;73.70;99450.63;511885;1098;116154;-60
2021/05/20 21:42:54;;;;;;;15.83;12.77;;;;;;;7.40;74.37;99438.84;515490;1092;117111;-60
2021/05/20 21:52:59;;;;;;;12.57;9.90;;;;;;;7.35;74.93;99446.06;512810;1098;116899;-61
2021/05/20 22:03:04;;;;;;;12.93;9.77;;;;;;;7.26;75.23;99447.41;512372;1098;116501;-60
2021/05/20 22:13:20;;;;;;;12.50;10.60;;;;;;;7.08;74.92;99451.82;513582;1093;117216;-60
2021/05/20 22:23:25;;;;;;;12.07;9.77;;;;;;;6.91;75.18;99446.61;514005;1092;116102;-61
2021/05/20 22:33:33;;;;;;;11.35;9.80;;;;;;;6.79;75.40;99442.88;515406;1098;115796;-60
2021/05/20 22:43:38;;;;;;;12.23;10.73;;;;;;;6.61;75.82;99439.43;512150;1098;116072;-60
2021/05/20 22:53:44;;;;;;;15.10;13.50;;;;;;;6.50;75.99;99432.13;515313;1098;116550;-61
2021/05/20 23:03:49;;;;;;;16.87;13.37;;;;;;;6.40;76.59;99431.75;518506;1098;117448;-60
2021/05/20 23:13:54;;;;;;;17.80;14.55;;;;;;;6.31;76.28;99433.05;526886;1098;117664;-61
2021/05/20 23:24:00;;;;;;;16.00;13.45;;;;;;;6.22;76.58;99431.71;517749;1093;117049;-60
2021/05/20 23:34:06;;;;;;;14.60;12.37;;;;;;;6.11;76.75;99420.95;516583;1098;116548;-60
2021/05/20 23:44:14;;;;;;;17.70;15.37;;;;;;;6.03;76.97;99423.94;520380;1098;116295;-57
2021/05/20 23:54:21;;;;;;;16.27;14.53;;;;;;;5.94;77.47;99425.20;515969;1098;173521;-61
